createdAt,value
2023-04-06T00:02:19.609Z,101122.44
2023-04-06T00:04:46.139Z,101125.06
2023-04-06T00:07:12.556Z,101122.25
2023-04-06T00:09:38.909Z,101110.69
2023-04-06T00:12:05.733Z,101120.75
2023-04-06T00:14:32.165Z,101121.47
2023-04-06T00:16:58.632Z,101122.66
2023-04-06T00:19:25.132Z,101118.94
2023-04-06T00:21:51.654Z,101123.25
2023-04-06T00:24:18.115Z,101118.91
2023-04-06T00:26:44.506Z,101114.03
2023-04-06T00:29:11.242Z,101106.91
2023-04-06T00:31:37.749Z,101107.16
2023-04-06T00:34:04.444Z,101106.22
2023-04-06T00:36:30.924Z,101099.97
2023-04-06T00:38:57.319Z,101109.28
2023-04-06T00:41:23.730Z,101099.34
2023-04-06T00:43:50.154Z,101098.63
2023-04-06T00:46:16.581Z,101095.88
2023-04-06T00:48:42.988Z,101086.47
2023-04-06T00:51:09.503Z,101082.59
2023-04-06T00:53:36.116Z,101080.34
2023-04-06T00:56:02.493Z,101079.44
2023-04-06T00:58:29.071Z,101075.63
2023-04-06T01:00:55.705Z,101068.81
2023-04-06T01:03:22.128Z,101070.09
2023-04-06T01:05:48.617Z,101066.25
2023-04-06T01:08:15.524Z,101061.94
2023-04-06T01:10:42.235Z,101071.53
2023-04-06T01:13:09.386Z,101060.78
2023-04-06T01:15:36.393Z,101063.28
2023-04-06T01:18:03.310Z,101058.19
2023-04-06T01:20:29.704Z,101056.47
2023-04-06T01:22:56.352Z,101057.16
2023-04-06T01:25:22.738Z,101044.91
2023-04-06T01:27:49.127Z,101047.75
2023-04-06T01:30:15.596Z,101038.81
2023-04-06T01:32:42.061Z,101046.94
2023-04-06T01:35:08.922Z,101039.56
2023-04-06T01:37:35.318Z,101037.75
2023-04-06T01:40:01.938Z,101039.13
2023-04-06T01:42:28.979Z,101028.84
2023-04-06T01:44:55.375Z,101033.63
2023-04-06T01:47:21.849Z,101037.19
2023-04-06T01:49:48.356Z,101033.88
2023-04-06T01:52:15.033Z,101032.19
2023-04-06T01:54:41.664Z,101029.00
2023-04-06T01:57:08.100Z,101024.69
2023-04-06T01:59:34.533Z,101019.56
2023-04-06T02:02:00.995Z,101030.09
2023-04-06T02:04:27.380Z,101023.91
2023-04-06T02:06:53.759Z,101019.81
2023-04-06T02:09:20.429Z,101030.94
2023-04-06T02:11:46.798Z,101023.34
2023-04-06T02:14:13.195Z,101018.56
2023-04-06T02:16:39.618Z,101014.25
2023-04-06T02:19:06.283Z,101022.47
2023-04-06T02:21:32.860Z,101012.53
2023-04-06T02:23:59.246Z,101029.59
2023-04-06T02:26:25.897Z,101010.50
2023-04-06T02:28:52.369Z,101021.56
2023-04-06T02:31:18.798Z,101019.69
2023-04-06T02:33:45.270Z,101021.16
2023-04-06T02:36:11.658Z,101019.00
2023-04-06T02:38:38.074Z,101020.91
2023-04-06T02:41:04.513Z,101021.56
2023-04-06T02:43:31.218Z,101019.31
2023-04-06T02:45:57.646Z,101018.97
2023-04-06T02:48:24.084Z,101011.00
2023-04-06T02:50:50.749Z,101017.28
2023-04-06T02:53:17.162Z,101019.22
2023-04-06T02:55:43.645Z,101018.97
2023-04-06T02:58:10.238Z,101012.59
2023-04-06T03:00:37.652Z,101012.38
2023-04-06T03:03:04.197Z,101013.44
2023-04-06T03:05:31.585Z,101007.78
2023-04-06T03:07:57.975Z,101018.13
2023-04-06T03:10:24.376Z,101011.13
2023-04-06T03:12:51.069Z,101025.13
2023-04-06T03:15:17.461Z,101024.50
2023-04-06T03:17:43.987Z,101023.50
2023-04-06T03:20:10.769Z,101016.06
2023-04-06T03:22:37.160Z,101009.47
2023-04-06T03:25:03.926Z,101012.41
2023-04-06T03:27:30.476Z,101013.75
2023-04-06T03:29:56.847Z,101000.16
2023-04-06T03:32:23.293Z,101006.38
2023-04-06T03:34:49.723Z,101007.63
2023-04-06T03:37:16.281Z,101011.63
2023-04-06T03:39:42.658Z,101009.19
2023-04-06T03:42:09.608Z,101007.50
2023-04-06T03:44:36.093Z,101008.38
2023-04-06T03:47:03.236Z,101012.25
2023-04-06T03:49:29.606Z,101006.69
2023-04-06T03:51:57.079Z,101006.63
2023-04-06T03:54:23.462Z,101022.31
2023-04-06T03:56:50.258Z,101018.31
2023-04-06T03:59:17.025Z,101023.06
2023-04-06T04:01:43.597Z,101014.44
2023-04-06T04:04:11.111Z,101013.13
2023-04-06T04:06:37.512Z,101020.00
2023-04-06T04:09:04.022Z,101013.72
2023-04-06T04:11:30.429Z,101015.97
2023-04-06T04:13:56.835Z,101017.38
2023-04-06T04:16:23.315Z,101014.44
2023-04-06T04:18:49.904Z,101019.94
2023-04-06T04:21:16.413Z,101012.09
2023-04-06T04:23:42.858Z,101013.59
2023-04-06T04:26:09.469Z,101014.88
2023-04-06T04:28:36.048Z,101012.81
2023-04-06T04:31:02.504Z,101022.94
2023-04-06T04:33:28.881Z,101024.94
2023-04-06T04:35:55.422Z,101010.03
2023-04-06T04:38:21.880Z,101018.13
2023-04-06T04:40:48.330Z,101023.69
2023-04-06T04:43:14.791Z,101013.06
2023-04-06T04:45:41.236Z,101014.88
2023-04-06T04:48:08.863Z,101020.00
2023-04-06T04:50:35.388Z,101014.00
2023-04-06T04:53:01.872Z,101008.53
2023-04-06T04:55:28.654Z,101013.47
2023-04-06T04:57:55.218Z,101015.09
2023-04-06T05:00:21.881Z,101006.69
2023-04-06T05:02:48.481Z,101009.97
2023-04-06T05:05:15.028Z,101007.38
2023-04-06T05:07:41.392Z,101009.22
2023-04-06T05:10:08.210Z,101010.69
2023-04-06T05:12:34.736Z,101009.28
2023-04-06T05:15:01.113Z,101013.03
2023-04-06T05:17:27.632Z,101002.84
2023-04-06T05:19:54.099Z,101010.41
2023-04-06T05:22:20.876Z,101005.88
2023-04-06T05:24:47.315Z,101004.06
2023-04-06T05:27:13.779Z,101003.69
2023-04-06T05:29:40.366Z,101004.91
2023-04-06T05:32:07.154Z,101011.38
2023-04-06T05:34:33.566Z,101006.97
2023-04-06T05:36:59.934Z,101015.28
2023-04-06T05:39:26.579Z,100994.34
2023-04-06T05:41:52.966Z,101009.50
2023-04-06T05:44:19.409Z,101003.19
2023-04-06T05:46:45.947Z,101006.28
2023-04-06T05:49:13.380Z,101001.53
2023-04-06T05:51:39.742Z,101006.25
2023-04-06T05:54:06.142Z,101002.16
2023-04-06T05:56:32.804Z,101001.38
2023-04-06T05:58:59.223Z,100998.84
2023-04-06T06:01:25.702Z,101008.31
2023-04-06T06:03:52.114Z,101004.53
2023-04-06T06:06:18.510Z,101003.75
2023-04-06T06:08:44.911Z,100994.38
2023-04-06T06:11:11.449Z,101000.72
2023-04-06T06:13:37.814Z,101009.25
2023-04-06T06:16:06.157Z,101000.41
2023-04-06T06:18:33.217Z,100997.31
2023-04-06T06:20:59.730Z,101001.69
2023-04-06T06:23:26.192Z,100995.78
2023-04-06T06:25:52.691Z,100997.22
2023-04-06T06:28:19.103Z,100996.75
2023-04-06T06:30:45.485Z,100999.38
2023-04-06T06:33:11.881Z,101002.22
2023-04-06T06:35:38.299Z,100999.09
2023-04-06T06:38:04.717Z,101000.34
2023-04-06T06:40:31.185Z,101002.47
2023-04-06T06:42:57.575Z,101007.28
2023-04-06T06:45:26.281Z,100999.44
2023-04-06T06:47:54.907Z,101001.34
2023-04-06T06:50:22.027Z,100997.72
2023-04-06T06:52:48.481Z,100994.63
2023-04-06T06:55:15.002Z,100992.72
2023-04-06T06:57:43.259Z,100990.25
2023-04-06T07:00:12.909Z,100983.34
2023-04-06T07:02:40.029Z,100981.28
2023-04-06T07:05:23.823Z,100983.13
2023-04-06T07:07:54.129Z,100982.69
2023-04-06T07:10:20.884Z,100984.91
2023-04-06T07:12:47.486Z,100980.78
2023-04-06T07:15:14.088Z,100982.41
2023-04-06T07:17:42.385Z,100972.97
2023-04-06T07:20:09.350Z,100967.97
2023-04-06T07:22:35.797Z,100959.81
2023-04-06T07:25:02.195Z,100958.22
2023-04-06T07:27:28.548Z,100962.00
2023-04-06T07:29:54.938Z,100953.66
2023-04-06T07:32:21.412Z,100952.72
2023-04-06T07:34:47.938Z,100941.44
2023-04-06T07:37:14.322Z,100950.78
2023-04-06T07:39:41.412Z,100946.97
2023-04-06T07:42:08.066Z,100937.09
2023-04-06T07:44:34.467Z,100937.22
2023-04-06T07:47:01.256Z,100930.78
2023-04-06T07:49:27.680Z,100933.31
2023-04-06T07:51:54.697Z,100941.41
2023-04-06T07:54:21.193Z,100933.50
2023-04-06T07:56:47.602Z,100922.56
2023-04-06T07:59:14.622Z,100924.38
2023-04-06T08:01:41.096Z,100924.25
2023-04-06T08:04:07.892Z,100921.91
2023-04-06T08:06:35.187Z,100929.28
2023-04-06T08:09:01.550Z,100923.72
2023-04-06T08:11:28.314Z,100925.78
2023-04-06T08:13:56.569Z,100922.81
2023-04-06T08:16:23.430Z,100927.94
2023-04-06T08:18:49.858Z,100925.72
2023-04-06T08:21:16.323Z,100924.50
2023-04-06T08:23:42.899Z,100917.44
2023-04-06T08:26:09.618Z,100927.00
2023-04-06T08:28:36.308Z,100928.59
2023-04-06T08:31:06.634Z,100919.63
2023-04-06T08:33:37.007Z,100921.78
2023-04-06T08:36:11.142Z,100926.44
2023-04-06T08:38:37.588Z,100919.75
2023-04-06T08:41:11.845Z,100915.94
2023-04-06T08:43:47.622Z,100915.66
2023-04-06T08:46:14.199Z,100913.13
2023-04-06T08:48:41.783Z,100914.38
2023-04-06T08:51:09.094Z,100906.28
2023-04-06T08:53:35.809Z,100901.19
2023-04-06T08:56:02.445Z,100905.47
2023-04-06T08:58:37.543Z,100904.00
2023-04-06T09:01:09.285Z,100905.72
2023-04-06T09:03:39.456Z,100897.25
2023-04-06T09:06:07.106Z,100894.06
2023-04-06T09:08:36.801Z,100891.19
2023-04-06T09:11:04.133Z,100884.47
2023-04-06T09:13:30.941Z,100894.22
2023-04-06T09:16:05.070Z,100894.34
2023-04-06T09:18:32.206Z,100890.31
2023-04-06T09:21:04.369Z,100878.13
2023-04-06T09:23:30.739Z,100878.19
2023-04-06T09:26:07.284Z,100876.75
2023-04-06T09:28:54.152Z,100867.88
2023-04-06T09:31:28.450Z,100878.56
2023-04-06T09:33:55.617Z,100875.25
2023-04-06T09:36:31.942Z,100869.34
2023-04-06T09:39:00.472Z,100857.16
2023-04-06T09:41:31.550Z,100866.97
2023-04-06T09:44:08.762Z,100861.78
2023-04-06T09:46:50.488Z,100862.44
2023-04-06T09:49:22.848Z,100865.97
2023-04-06T09:52:01.616Z,100856.38
2023-04-06T09:54:30.402Z,100866.03
2023-04-06T09:57:14.881Z,100867.75
2023-04-06T10:00:10.644Z,100867.56
2023-04-06T10:02:39.825Z,100864.44
2023-04-06T10:05:10.629Z,100855.25
2023-04-06T10:07:46.216Z,100856.34
2023-04-06T10:10:23.409Z,100850.50
2023-04-06T10:12:50.732Z,100852.75
2023-04-06T10:15:18.839Z,100850.34
2023-04-06T10:17:46.747Z,100852.66
2023-04-06T10:20:28.892Z,100851.56
2023-04-06T10:23:07.599Z,100851.06
2023-04-06T10:25:34.386Z,100850.41
2023-04-06T10:28:07.812Z,100846.91
2023-04-06T10:30:35.653Z,100846.50
2023-04-06T10:33:13.306Z,100835.41
2023-04-06T10:35:40.017Z,100844.31
2023-04-06T10:38:06.512Z,100846.16
2023-04-06T10:40:33.172Z,100842.72
2023-04-06T10:43:10.332Z,100845.66
2023-04-06T10:45:36.929Z,100856.25
2023-04-06T10:48:14.809Z,100853.53
2023-04-06T10:50:41.723Z,100840.25
2023-04-06T10:53:08.122Z,100833.09
2023-04-06T10:55:35.535Z,100836.19
2023-04-06T10:58:01.938Z,100834.22
2023-04-06T11:00:36.263Z,100842.97
2023-04-06T11:03:09.688Z,100832.59
2023-04-06T11:05:36.406Z,100822.88
2023-04-06T11:08:02.794Z,100816.13
2023-04-06T11:10:30.859Z,100820.63
2023-04-06T11:12:57.730Z,100823.31
2023-04-06T11:15:24.234Z,100821.47
2023-04-06T11:17:50.983Z,100821.50
2023-04-06T11:20:18.412Z,100819.91
2023-04-06T11:22:53.460Z,100827.19
2023-04-06T11:25:20.240Z,100817.44
2023-04-06T11:27:47.909Z,100811.38
2023-04-06T11:30:15.458Z,100807.25
2023-04-06T11:32:43.533Z,100809.19
2023-04-06T11:35:21.738Z,100806.31
2023-04-06T11:37:49.891Z,100808.63
2023-04-06T11:40:16.801Z,100804.63
2023-04-06T11:42:43.194Z,100804.69
2023-04-06T11:45:10.070Z,100805.41
2023-04-06T11:47:38.736Z,100793.69
2023-04-06T11:50:09.785Z,100789.50
2023-04-06T11:52:36.407Z,100800.53
2023-04-06T11:55:13.918Z,100794.41
2023-04-06T11:57:40.745Z,100786.50
2023-04-06T12:00:09.317Z,100780.22
2023-04-06T12:02:37.109Z,100783.31
2023-04-06T12:05:04.402Z,100773.53
2023-04-06T12:07:31.339Z,100788.72
2023-04-06T12:09:57.809Z,100776.81
2023-04-06T12:12:24.198Z,100789.72
2023-04-06T12:14:50.855Z,100779.41
2023-04-06T12:17:17.316Z,100782.38
2023-04-06T12:19:43.702Z,100784.00
2023-04-06T12:22:10.247Z,100782.75
2023-04-06T12:24:36.631Z,100775.78
2023-04-06T12:27:09.896Z,100774.31
2023-04-06T12:29:36.819Z,100769.28
2023-04-06T12:32:03.209Z,100765.25
2023-04-06T12:34:29.722Z,100762.06
2023-04-06T12:36:57.023Z,100760.94
2023-04-06T12:39:23.656Z,100760.53
2023-04-06T12:41:50.299Z,100769.16
2023-04-06T12:44:16.682Z,100764.88
2023-04-06T12:46:44.178Z,100758.88
2023-04-06T12:49:12.895Z,100747.81
2023-04-06T12:51:39.298Z,100762.38
2023-04-06T12:54:06.824Z,100760.72
2023-04-06T12:56:33.584Z,100760.41
2023-04-06T12:59:00.018Z,100758.59
2023-04-06T13:01:28.926Z,100760.13
2023-04-06T13:03:56.392Z,100753.03
2023-04-06T13:06:22.766Z,100761.81
2023-04-06T13:08:51.037Z,100751.88
2023-04-06T13:11:17.465Z,100754.66
2023-04-06T13:13:43.842Z,100752.03
2023-04-06T13:16:10.448Z,100739.00
2023-04-06T13:18:39.340Z,100734.84
2023-04-06T13:21:07.167Z,100739.28
2023-04-06T13:23:33.916Z,100738.72
2023-04-06T13:26:02.254Z,100734.50
2023-04-06T13:28:28.759Z,100737.38
2023-04-06T13:30:55.856Z,100741.59
2023-04-06T13:33:22.688Z,100735.91
2023-04-06T13:35:49.099Z,100747.09
2023-04-06T13:38:16.027Z,100738.56
2023-04-06T13:40:42.758Z,100730.03
2023-04-06T13:43:09.233Z,100733.28
2023-04-06T13:45:35.776Z,100724.28
2023-04-06T13:48:02.254Z,100733.84
2023-04-06T13:50:28.977Z,100727.94
2023-04-06T13:52:55.521Z,100725.38
2023-04-06T13:55:22.250Z,100721.03
2023-04-06T13:57:48.625Z,100728.78
2023-04-06T14:00:15.752Z,100723.28
2023-04-06T14:02:42.705Z,100731.72
2023-04-06T14:05:09.773Z,100741.94
2023-04-06T14:07:36.206Z,100727.63
2023-04-06T14:10:03.341Z,100741.25
2023-04-06T14:12:29.903Z,100737.94
2023-04-06T14:14:56.666Z,100729.28
2023-04-06T14:17:23.058Z,100740.34
2023-04-06T14:19:49.958Z,100733.16
2023-04-06T14:22:16.359Z,100739.41
2023-04-06T14:24:42.770Z,100742.13
2023-04-06T14:27:09.284Z,100753.44
2023-04-06T14:29:36.545Z,100745.34
2023-04-06T14:32:03.583Z,100742.84
2023-04-06T14:34:30.211Z,100753.44
2023-04-06T14:36:56.664Z,100740.47
2023-04-06T14:39:23.085Z,100747.31
2023-04-06T14:41:50.971Z,100749.69
2023-04-06T14:44:17.611Z,100747.84
2023-04-06T14:46:44.244Z,100749.50
2023-04-06T14:49:10.842Z,100740.09
2023-04-06T14:51:37.289Z,100747.16
2023-04-06T14:54:04.220Z,100743.50
2023-04-06T14:56:32.048Z,100749.63
2023-04-06T14:58:59.721Z,100744.72
2023-04-06T15:01:26.192Z,100770.38
2023-04-06T15:03:52.834Z,100753.59
2023-04-06T15:06:21.640Z,100752.38
2023-04-06T15:08:49.510Z,100753.88
2023-04-06T15:11:16.067Z,100745.81
2023-04-06T15:13:42.719Z,100740.75
2023-04-06T15:16:09.419Z,100744.53
2023-04-06T15:18:36.345Z,100745.53
2023-04-06T15:21:03.158Z,100746.91
2023-04-06T15:23:33.692Z,100755.22
2023-04-06T15:26:00.300Z,100746.63
2023-04-06T15:28:26.881Z,100751.84
2023-04-06T15:30:54.878Z,100754.44
2023-04-06T15:33:22.771Z,100745.44
2023-04-06T15:35:49.220Z,100753.78
2023-04-06T15:38:15.800Z,100762.22
2023-04-06T15:40:47.271Z,100749.91
2023-04-06T15:43:14.041Z,100758.59
2023-04-06T15:45:41.606Z,100751.00
2023-04-06T15:48:08.358Z,100751.38
2023-04-06T15:50:35.425Z,100745.13
2023-04-06T15:53:02.103Z,100757.41
2023-04-06T15:55:28.535Z,100758.84
2023-04-06T15:57:54.908Z,100761.03
2023-04-06T16:00:21.864Z,100759.28
2023-04-06T16:02:48.546Z,100756.59
2023-04-06T16:05:15.138Z,100765.81
2023-04-06T16:07:41.813Z,100769.28
2023-04-06T16:10:08.868Z,100772.56
2023-04-06T16:12:35.275Z,100763.63
2023-04-06T16:15:01.758Z,100765.91
2023-04-06T16:17:28.214Z,100768.50
2023-04-06T16:19:54.983Z,100768.06
2023-04-06T16:22:21.977Z,100775.25
2023-04-06T16:24:48.363Z,100776.38
2023-04-06T16:27:14.768Z,100783.84
2023-04-06T16:29:41.666Z,100793.41
2023-04-06T16:32:10.924Z,100801.34
2023-04-06T16:34:37.623Z,100811.28
2023-04-06T16:37:04.076Z,100803.03
2023-04-06T16:39:30.580Z,100797.94
2023-04-06T16:41:57.448Z,100801.69
2023-04-06T16:44:23.977Z,100794.03
2023-04-06T16:46:51.050Z,100806.53
2023-04-06T16:49:19.357Z,100795.22
2023-04-06T16:51:45.935Z,100811.28
2023-04-06T16:54:12.383Z,100809.69
2023-04-06T16:56:38.770Z,100818.69
2023-04-06T16:59:08.023Z,100811.13
2023-04-06T17:01:34.516Z,100806.72
2023-04-06T17:04:01.790Z,100806.94
2023-04-06T17:06:28.498Z,100794.06
2023-04-06T17:08:54.952Z,100796.19
2023-04-06T17:11:25.668Z,100796.53
2023-04-06T17:13:55.340Z,100800.72
2023-04-06T17:16:21.812Z,100801.16
2023-04-06T17:18:48.228Z,100803.81
2023-04-06T17:21:16.734Z,100796.00
2023-04-06T17:23:43.777Z,100800.94
2023-04-06T17:26:10.304Z,100804.31
2023-04-06T17:28:36.703Z,100813.63
2023-04-06T17:31:07.963Z,100806.81
2023-04-06T17:33:35.215Z,100809.81
2023-04-06T17:36:01.827Z,100817.72
2023-04-06T17:38:28.309Z,100812.09
2023-04-06T17:40:54.835Z,100819.38
2023-04-06T17:43:21.330Z,100819.63
2023-04-06T17:45:51.877Z,100823.56
2023-04-06T17:48:18.320Z,100820.91
2023-04-06T17:50:45.369Z,100827.44
2023-04-06T17:53:12.076Z,100824.44
2023-04-06T17:55:38.463Z,100828.50
2023-04-06T17:58:05.297Z,100829.91
2023-04-06T18:00:31.699Z,100831.31
2023-04-06T18:02:58.128Z,100825.50
2023-04-06T18:05:25.932Z,100828.88
2023-04-06T18:07:55.473Z,100833.25
2023-04-06T18:10:22.651Z,100832.19
2023-04-06T18:12:49.166Z,100835.06
2023-04-06T18:15:16.833Z,100836.25
2023-04-06T18:17:44.626Z,100842.19
2023-04-06T18:20:13.172Z,100836.63
2023-04-06T18:22:40.529Z,100838.94
2023-04-06T18:25:07.288Z,100834.03
2023-04-06T18:27:33.821Z,100837.59
2023-04-06T18:30:01.078Z,100832.84
2023-04-06T18:32:30.587Z,100832.88
2023-04-06T18:34:57.758Z,100835.69
2023-04-06T18:37:25.381Z,100832.63
2023-04-06T18:39:53.243Z,100834.38
2023-04-06T18:42:19.630Z,100835.50
2023-04-06T18:44:46.892Z,100833.03
2023-04-06T18:47:13.413Z,100837.53
2023-04-06T18:49:39.922Z,100828.09
2023-04-06T18:52:06.371Z,100825.81
2023-04-06T18:54:32.843Z,100827.47
2023-04-06T18:56:59.238Z,100835.03
2023-04-06T18:59:30.029Z,100833.13
2023-04-06T19:01:56.600Z,100836.84
2023-04-06T19:04:23.389Z,100829.16
2023-04-06T19:06:49.954Z,100829.50
2023-04-06T19:09:16.421Z,100830.31
2023-04-06T19:11:42.784Z,100825.25
2023-04-06T19:14:09.183Z,100827.22
2023-04-06T19:16:40.857Z,100829.53
2023-04-06T19:19:07.371Z,100826.03
2023-04-06T19:21:33.750Z,100823.97
2023-04-06T19:24:00.339Z,100823.38
2023-04-06T19:26:32.312Z,100822.56
2023-04-06T19:28:58.728Z,100821.78
2023-04-06T19:31:26.894Z,100822.56
2023-04-06T19:33:53.394Z,100815.09
2023-04-06T19:36:19.851Z,100813.41
2023-04-06T19:38:46.268Z,100814.28
2023-04-06T19:41:12.915Z,100806.97
2023-04-06T19:43:39.419Z,100816.38
2023-04-06T19:46:05.980Z,100811.34
2023-04-06T19:48:33.849Z,100808.38
2023-04-06T19:51:00.331Z,100812.22
2023-04-06T19:53:27.206Z,100816.75
2023-04-06T19:55:53.706Z,100808.75
2023-04-06T19:58:21.491Z,100812.78
2023-04-06T20:00:47.892Z,100804.78
2023-04-06T20:03:14.623Z,100802.03
2023-04-06T20:05:41.474Z,100794.44
2023-04-06T20:08:08.011Z,100790.72
2023-04-06T20:10:34.847Z,100790.59
2023-04-06T20:13:01.481Z,100787.22
2023-04-06T20:15:28.075Z,100788.78
2023-04-06T20:17:55.329Z,100788.50
2023-04-06T20:20:21.814Z,100788.13
2023-04-06T20:22:49.989Z,100785.16
2023-04-06T20:25:17.601Z,100780.50
2023-04-06T20:27:45.249Z,100787.09
2023-04-06T20:30:14.145Z,100780.25
2023-04-06T20:32:40.960Z,100790.97
2023-04-06T20:35:07.664Z,100788.75
2023-04-06T20:37:35.246Z,100790.06
2023-04-06T20:40:01.694Z,100780.63
2023-04-06T20:42:28.103Z,100779.13
2023-04-06T20:44:56.844Z,100784.38
2023-04-06T20:47:23.379Z,100777.03
2023-04-06T20:49:50.073Z,100772.28
2023-04-06T20:52:16.446Z,100774.59
2023-04-06T20:54:42.831Z,100775.09
2023-04-06T20:57:09.212Z,100770.97
2023-04-06T20:59:35.770Z,100770.97
2023-04-06T21:02:02.346Z,100773.31
2023-04-06T21:04:28.948Z,100763.75
2023-04-06T21:06:55.471Z,100754.50
2023-04-06T21:09:21.897Z,100752.69
2023-04-06T21:11:48.334Z,100750.72
2023-04-06T21:14:14.742Z,100753.34
2023-04-06T21:16:41.854Z,100745.97
2023-04-06T21:19:08.312Z,100743.38
2023-04-06T21:21:34.752Z,100748.03
2023-04-06T21:24:01.716Z,100745.97
2023-04-06T21:26:28.187Z,100740.56
2023-04-06T21:28:54.704Z,100743.13
2023-04-06T21:31:22.148Z,100741.97
2023-04-06T21:33:48.916Z,100742.88
2023-04-06T21:36:15.344Z,100741.22
2023-04-06T21:38:41.763Z,100744.13
2023-04-06T21:41:08.155Z,100736.03
2023-04-06T21:43:35.557Z,100740.94
2023-04-06T21:46:02.299Z,100732.81
2023-04-06T21:48:28.764Z,100734.84
2023-04-06T21:50:55.133Z,100732.97
2023-04-06T21:53:21.548Z,100728.19
2023-04-06T21:55:49.103Z,100733.34
2023-04-06T21:58:15.711Z,100730.50
2023-04-06T22:00:42.131Z,100734.22
2023-04-06T22:03:08.620Z,100722.75
2023-04-06T22:05:36.362Z,100729.44
2023-04-06T22:08:03.188Z,100723.75
2023-04-06T22:10:29.689Z,100725.53
2023-04-06T22:12:56.205Z,100721.34
2023-04-06T22:15:22.783Z,100721.94
2023-04-06T22:17:49.231Z,100723.00
2023-04-06T22:20:15.707Z,100722.59
2023-04-06T22:22:42.155Z,100716.56
2023-04-06T22:25:08.979Z,100717.59
2023-04-06T22:27:35.558Z,100708.56
2023-04-06T22:30:02.646Z,100713.69
2023-04-06T22:32:29.163Z,100712.16
2023-04-06T22:34:55.732Z,100709.34
2023-04-06T22:37:22.116Z,100710.25
2023-04-06T22:39:48.495Z,100715.25
2023-04-06T22:42:14.895Z,100713.09
2023-04-06T22:44:41.310Z,100709.44
2023-04-06T22:47:07.864Z,100719.38
2023-04-06T22:49:34.276Z,100709.56
2023-04-06T22:52:00.749Z,100712.66
2023-04-06T22:54:27.133Z,100706.75
2023-04-06T22:56:53.764Z,100702.66
2023-04-06T22:59:20.573Z,100702.25
2023-04-06T23:01:47.031Z,100699.78
2023-04-06T23:04:13.577Z,100703.00
2023-04-06T23:06:39.975Z,100693.34
2023-04-06T23:09:06.375Z,100695.66
2023-04-06T23:11:32.763Z,100698.63
2023-04-06T23:13:59.145Z,100701.31
2023-04-06T23:16:25.597Z,100694.88
2023-04-06T23:18:51.984Z,100693.34
2023-04-06T23:21:18.415Z,100690.88
2023-04-06T23:23:44.800Z,100687.66
2023-04-06T23:26:11.828Z,100688.41
2023-04-06T23:28:38.243Z,100692.66
2023-04-06T23:31:04.700Z,100696.69
2023-04-06T23:33:31.336Z,100684.03
2023-04-06T23:35:57.755Z,100686.22
2023-04-06T23:38:24.225Z,100684.28
2023-04-06T23:40:50.868Z,100685.06
2023-04-06T23:43:17.305Z,100684.56
2023-04-06T23:45:43.696Z,100684.16
2023-04-06T23:48:10.372Z,100681.47
2023-04-06T23:50:37.259Z,100683.00
2023-04-06T23:53:04.369Z,100681.19
2023-04-06T23:55:31.198Z,100675.50
2023-04-06T23:57:57.679Z,100679.28
